Time;durP1;ratioP1;P1;durP2;ratioP2;P2;SDS_P1;SDS_P2;PMS_P1;PMS_P2;Temp;Humidity;BMP_temperature;BMP_pressure;BME280_temperature;BME280_humidity;BME280_pressure;Samples;Min_cycle;Max_cycle;Signal;HPM_P1;HPM_P2
2021/06/05 00:00:11;;;;;;;8.82;4.18;;;;;;;21.31;47.61;101784.03;146689;617;46020;-69
2021/06/05 00:02:42;;;;;;;6.03;3.97;;;;;;;21.30;47.46;101787.62;146694;598;46012;-68
2021/06/05 00:05:14;;;;;;;5.90;4.10;;;;;;;21.26;47.59;101783.41;146690;578;46020;-65
2021/06/05 00:07:44;;;;;;;7.10;3.90;;;;;;;21.24;47.35;101780.81;146689;646;46016;-66
2021/06/05 00:10:22;;;;;;;7.03;3.55;;;;;;;21.24;47.37;101786.16;146694;617;46010;-65
2021/06/05 00:12:53;;;;;;;8.05;3.90;;;;;;;21.19;47.59;101784.72;146690;629;46016;-66
2021/06/05 00:15:36;;;;;;;7.22;4.15;;;;;;;21.06;47.42;101773.84;146692;666;46010;-64
2021/06/05 00:18:08;;;;;;;8.27;4.05;;;;;;;21.15;47.86;101786.69;146690;609;46903;-64
2021/06/05 00:20:39;;;;;;;6.50;4.07;;;;;;;21.12;47.65;101785.03;146693;573;46020;-64
2021/06/05 00:23:14;;;;;;;7.20;4.25;;;;;;;21.06;47.42;101782.69;146690;588;46027;-64
2021/06/05 00:25:46;;;;;;;8.60;3.83;;;;;;;21.00;47.52;101783.06;146692;611;47010;-64
2021/06/05 00:28:18;;;;;;;6.75;3.90;;;;;;;20.98;47.55;101779.59;146689;610;46014;-64
2021/06/05 00:30:48;;;;;;;9.32;4.20;;;;;;;20.98;46.90;101771.56;146691;632;47011;-64
2021/06/05 00:33:19;;;;;;;6.53;3.90;;;;;;;20.95;47.30;101769.09;146688;579;47012;-64
2021/06/05 00:35:50;;;;;;;5.35;3.87;;;;;;;20.89;46.76;101774.78;146690;569;47010;-64
2021/06/05 00:38:21;;;;;;;8.02;3.90;;;;;;;20.90;46.76;101780.03;146689;622;46013;-64
2021/06/05 00:40:57;;;;;;;5.95;3.62;;;;;;;20.90;46.60;101777.34;146693;563;46020;-64
2021/06/05 00:43:34;;;;;;;7.45;3.80;;;;;;;20.92;45.88;101777.28;146688;582;47012;-64
2021/06/05 00:46:05;;;;;;;8.38;3.60;;;;;;;20.90;45.37;101768.47;146693;589;46010;-64
2021/06/05 00:48:35;;;;;;;5.32;3.95;;;;;;;20.88;45.42;101773.03;146688;644;47012;-66
2021/06/05 00:51:07;;;;;;;5.62;3.60;;;;;;;20.84;45.10;101767.00;146690;565;46020;-64
2021/06/05 00:53:38;;;;;;;5.47;3.45;;;;;;;20.87;44.69;101765.97;146689;652;46017;-63
2021/06/05 00:56:12;;;;;;;6.20;3.40;;;;;;;20.83;45.25;101759.97;146692;677;46010;-64
2021/06/05 00:58:51;;;;;;;5.97;3.70;;;;;;;20.84;44.82;101764.34;146695;692;46903;-64
2021/06/05 01:01:28;;;;;;;5.97;3.72;;;;;;;20.85;44.64;101762.53;146692;593;46010;-65
2021/06/05 01:03:59;;;;;;;7.05;3.47;;;;;;;20.84;45.16;101756.31;146691;574;46014;-66
2021/06/05 01:06:43;;;;;;;6.25;3.62;;;;;;;20.79;44.34;101753.06;146694;605;46010;-66
2021/06/05 01:09:56;;;;;;;4.40;3.20;;;;;;;20.78;44.39;101751.34;146688;724;46016;-67
2021/06/05 01:13:29;;;;;;;5.82;3.45;;;;;;;20.81;44.77;101761.00;146692;649;46020;-67
2021/06/05 01:16:05;;;;;;;6.47;3.45;;;;;;;20.84;44.54;101760.81;146691;565;46012;-68
2021/06/05 01:19:05;;;;;;;5.68;3.47;;;;;;;20.73;44.24;101751.56;146696;586;46020;-68
2021/06/05 01:22:44;;;;;;;4.90;3.37;;;;;;;20.81;43.80;101755.66;146687;563;46020;-68
2021/06/05 01:26:02;;;;;;;6.35;3.70;;;;;;;20.85;43.78;101754.53;146692;596;46020;-67
2021/06/05 01:29:19;;;;;;;7.75;3.85;;;;;;;20.71;44.15;101739.25;146690;681;46012;-67
2021/06/05 01:31:56;;;;;;;5.35;3.60;;;;;;;20.75;44.25;101749.69;146698;586;46011;-66
2021/06/05 01:34:30;;;;;;;4.40;3.37;;;;;;;20.69;44.55;101751.84;146695;581;46012;-65
2021/06/05 01:37:02;;;;;;;7.45;3.37;;;;;;;20.69;44.24;101758.03;146692;583;46906;-65
2021/06/05 01:39:35;;;;;;;6.40;3.55;;;;;;;20.63;44.95;101753.00;146690;594;46016;-65
2021/06/05 01:42:20;;;;;;;4.55;3.42;;;;;;;20.68;44.46;101759.00;146697;569;45020;-65
2021/06/05 01:44:54;;;;;;;7.32;3.70;;;;;;;20.60;44.47;101754.03;146689;583;46015;-65
2021/06/05 01:47:25;;;;;;;5.07;3.70;;;;;;;20.73;44.83;101764.06;146689;577;46028;-66
2021/06/05 01:49:56;;;;;;;6.10;3.40;;;;;;;20.74;44.02;101761.31;146689;597;46016;-65
2021/06/05 01:52:31;;;;;;;9.77;3.95;;;;;;;20.72;44.52;101760.56;146695;585;46010;-63
2021/06/05 01:55:29;;;;;;;5.18;3.37;;;;;;;20.67;44.60;101767.91;146695;621;46012;-63
2021/06/05 01:58:12;;;;;;;7.05;3.67;;;;;;;20.71;43.91;101768.59;146694;573;46010;-64
2021/06/05 02:00:51;;;;;;;7.87;3.35;;;;;;;20.71;43.37;101763.28;146688;627;47905;-65
2021/06/05 02:03:22;;;;;;;6.80;3.58;;;;;;;20.64;43.71;101770.75;146692;581;46020;-65
2021/06/05 02:05:54;;;;;;;5.53;3.40;;;;;;;20.61;43.29;101773.56;146692;595;46014;-64
2021/06/05 02:08:27;;;;;;;6.22;3.87;;;;;;;20.53;43.68;101773.09;146697;569;45053;-64
2021/06/05 02:11:11;;;;;;;6.25;3.60;;;;;;;20.41;43.96;101775.50;146691;600;46012;-64
2021/06/05 02:13:53;;;;;;;5.90;3.83;;;;;;;20.38;44.41;101773.00;146695;577;46010;-67
2021/06/05 02:16:32;;;;;;;7.82;3.70;;;;;;;20.35;44.09;101770.47;146692;595;46014;-65
2021/06/05 02:19:11;;;;;;;7.60;3.80;;;;;;;20.27;44.07;101762.88;146694;584;46010;-65
2021/06/05 02:21:44;;;;;;;6.03;3.85;;;;;;;20.19;44.52;101766.88;146689;576;47005;-65
2021/06/05 02:24:28;;;;;;;5.60;3.70;;;;;;;20.11;44.36;101769.97;146695;599;46010;-65
2021/06/05 02:27:01;;;;;;;4.80;3.78;;;;;;;20.04;44.56;101776.53;146692;603;46014;-66
2021/06/05 02:29:36;;;;;;;6.95;3.80;;;;;;;19.99;44.15;101773.25;146693;570;46021;-66
2021/06/05 02:32:11;;;;;;;5.03;3.70;;;;;;;19.95;43.97;101773.38;146693;595;46014;-66
2021/06/05 02:34:43;;;;;;;7.97;3.85;;;;;;;19.92;44.41;101759.37;146695;600;46010;-66
2021/06/05 02:37:21;;;;;;;6.37;3.40;;;;;;;19.84;43.60;101762.41;146693;723;46013;-65
2021/06/05 02:39:57;;;;;;;12.18;3.53;;;;;;;19.75;43.81;101763.72;146691;582;46020;-65
2021/06/05 02:42:28;;;;;;;10.75;4.22;;;;;;;19.67;44.00;101759.69;146689;586;47905;-65
2021/06/05 02:45:01;;;;;;;6.82;3.62;;;;;;;19.65;43.67;101753.59;146694;610;47010;-66
2021/06/05 02:47:31;;;;;;;6.53;3.83;;;;;;;19.63;44.13;101759.00;146688;589;47012;-66
2021/06/05 02:50:09;;;;;;;9.75;4.25;;;;;;;19.62;43.68;101754.59;146693;711;46010;-65
2021/06/05 02:52:40;;;;;;;8.05;3.83;;;;;;;19.62;43.88;101757.28;146689;620;46013;-66
2021/06/05 02:55:18;;;;;;;9.70;4.00;;;;;;;19.61;44.19;101752.88;146695;585;46020;-66
2021/06/05 02:57:50;;;;;;;10.13;4.70;;;;;;;19.60;43.84;101753.81;146690;579;47027;-65
2021/06/05 03:00:46;;;;;;;9.38;4.32;;;;;;;19.58;43.94;101761.03;146694;606;46021;-65
2021/06/05 03:03:20;;;;;;;9.88;4.78;;;;;;;19.60;43.53;101765.34;146691;590;47018;-66
2021/06/05 03:05:53;;;;;;;7.15;3.53;;;;;;;19.65;43.69;101759.78;146696;601;46010;-65
2021/06/05 03:08:27;;;;;;;;;;;;;;;19.69;43.78;101753.34;146695;962;46012;-66
2021/06/05 03:10:59;;;;;;;5.97;3.50;;;;;;;19.74;43.60;101754.00;146697;742;47008;-66
2021/06/05 03:13:29;;;;;;;9.18;4.00;;;;;;;19.75;44.25;101749.50;146689;571;46018;-66
2021/06/05 03:16:00;;;;;;;9.52;4.12;;;;;;;19.75;43.71;101753.06;146694;566;46008;-66
2021/06/05 03:18:31;;;;;;;12.50;4.93;;;;;;;19.74;43.29;101746.00;146690;663;46016;-66
2021/06/05 03:21:02;;;;;;;13.45;5.95;;;;;;;19.72;43.54;101742.53;146693;563;47008;-65
2021/06/05 03:23:33;;;;;;;15.25;6.68;;;;;;;19.72;43.81;101734.53;146689;594;46014;-65
2021/06/05 03:26:06;;;;;;;13.43;5.55;;;;;;;19.71;43.53;101739.94;146695;574;46008;-66
2021/06/05 03:28:36;;;;;;;14.93;5.87;;;;;;;19.74;43.97;101751.34;146691;590;46010;-66
2021/06/05 03:31:07;;;;;;;10.45;4.93;;;;;;;19.77;43.84;101745.84;146691;742;46021;-66
2021/06/05 03:33:38;;;;;;;8.27;3.87;;;;;;;19.79;43.83;101745.75;146692;572;46014;-66
2021/06/05 03:36:09;;;;;;;8.25;3.80;;;;;;;19.74;43.38;101738.00;146695;580;46020;-66
2021/06/05 03:38:41;;;;;;;6.22;3.67;;;;;;;19.74;43.26;101735.34;146691;586;46011;-64
2021/06/05 03:41:13;;;;;;;6.87;3.72;;;;;;;19.75;43.43;101728.19;146692;571;47010;-64
2021/06/05 03:43:44;;;;;;;7.55;3.47;;;;;;;19.77;43.63;101732.50;146692;606;46016;-64
2021/06/05 03:46:14;;;;;;;8.98;3.62;;;;;;;19.77;43.93;101743.16;146695;598;46020;-64
2021/06/05 03:48:45;;;;;;;9.00;3.78;;;;;;;19.77;43.66;101740.50;146690;600;46010;-64
2021/06/05 03:51:16;;;;;;;7.50;3.65;;;;;;;19.79;43.99;101738.66;146694;593;46020;-64
2021/06/05 03:53:46;;;;;;;7.18;3.78;;;;;;;19.84;43.94;101732.25;146692;586;46014;-64
2021/06/05 03:56:17;;;;;;;5.28;3.70;;;;;;;19.85;44.21;101728.66;146690;573;46046;-64
2021/06/05 03:58:49;;;;;;;6.12;3.62;;;;;;;19.88;44.38;101723.16;146691;649;46018;-64
2021/06/05 04:01:24;;;;;;;5.95;3.87;;;;;;;19.92;44.15;101724.72;146694;686;46008;-64
2021/06/05 04:03:55;;;;;;;6.47;3.40;;;;;;;19.96;44.10;101726.28;146690;654;46030;-65
2021/06/05 04:06:32;;;;;;;5.87;3.55;;;;;;;20.04;44.65;101723.22;146694;629;46020;-65
2021/06/05 04:09:05;;;;;;;10.52;4.20;;;;;;;20.11;44.86;101722.81;146687;570;47010;-65
2021/06/05 04:11:35;;;;;;;8.25;4.32;;;;;;;20.20;44.78;101720.59;146693;613;47008;-66
2021/06/05 04:14:09;;;;;;;8.48;4.05;;;;;;;20.30;44.89;101732.53;146690;570;46016;-66
2021/06/05 04:16:40;;;;;;;9.88;4.10;;;;;;;20.39;44.44;101728.50;146693;603;46008;-65
2021/06/05 04:19:11;;;;;;;5.68;3.72;;;;;;;20.48;45.36;101722.69;146688;655;47010;-66
2021/06/05 04:21:41;;;;;;;5.35;3.10;;;;;;;20.56;44.50;101727.59;146690;611;47008;-65
2021/06/05 04:24:11;;;;;;;6.90;3.37;;;;;;;20.66;44.79;101723.47;146691;658;46014;-65
2021/06/05 04:26:42;;;;;;;7.37;3.50;;;;;;;20.78;44.28;101733.50;146693;577;47010;-65
2021/06/05 04:29:12;;;;;;;6.00;3.70;;;;;;;20.90;44.87;101734.66;146690;605;46017;-65
2021/06/05 04:31:43;;;;;;;5.97;3.42;;;;;;;21.02;44.06;101735.75;146693;583;46020;-66
2021/06/05 04:34:13;;;;;;;4.90;3.42;;;;;;;21.12;43.97;101734.31;146693;690;46014;-66
2021/06/05 04:36:44;;;;;;;5.00;3.50;;;;;;;21.24;44.33;101731.87;146694;682;46008;-66
2021/06/05 04:39:15;;;;;;;12.00;3.62;;;;;;;21.37;44.34;101735.56;146689;594;46902;-67
2021/06/05 04:41:46;;;;;;;7.82;3.40;;;;;;;21.46;44.08;101742.22;146692;605;46008;-67
2021/06/05 04:44:17;;;;;;;8.77;3.70;;;;;;;21.54;44.06;101748.00;146688;659;47010;-67
2021/06/05 04:46:47;;;;;;;4.50;3.40;;;;;;;21.57;43.94;101742.47;146692;707;46008;-66
2021/06/05 04:49:18;;;;;;;7.07;3.58;;;;;;;21.75;43.86;101753.91;146689;585;46018;-66
2021/06/05 04:51:49;;;;;;;7.53;3.67;;;;;;;21.86;43.73;101755.94;146695;569;47019;-66
2021/06/05 04:54:19;;;;;;;7.25;3.62;;;;;;;21.96;43.95;101766.94;146688;606;50021;-65
2021/06/05 04:56:50;;;;;;;5.50;3.78;;;;;;;22.05;43.55;101763.72;146695;624;46020;-66
2021/06/05 04:59:22;;;;;;;8.07;3.60;;;;;;;22.14;43.66;101773.88;146692;588;46014;-66
2021/06/05 05:01:53;;;;;;;6.32;4.07;;;;;;;22.26;43.65;101771.41;146696;563;46020;-66
2021/06/05 05:04:24;;;;;;;9.30;3.83;;;;;;;22.37;43.19;101784.16;146692;583;47010;-67
2021/06/05 05:06:54;;;;;;;9.70;4.15;;;;;;;22.47;42.98;101787.97;146695;657;46021;-66
2021/06/05 05:09:25;;;;;;;5.72;4.12;;;;;;;22.58;43.01;101790.00;146689;595;47010;-66
2021/06/05 05:11:55;;;;;;;11.40;4.30;;;;;;;22.63;42.40;101787.88;146690;582;46010;-66
2021/06/05 05:14:26;;;;;;;7.93;4.03;;;;;;;22.71;42.20;101785.59;146693;606;46020;-66
2021/06/05 05:16:56;;;;;;;5.75;3.80;;;;;;;22.78;42.29;101778.91;146693;630;46020;-67
2021/06/05 05:19:27;;;;;;;9.27;4.03;;;;;;;22.84;42.22;101776.78;146693;590;46014;-67
2021/06/05 05:21:58;;;;;;;9.27;3.70;;;;;;;22.90;42.05;101776.41;146694;647;46008;-66
2021/06/05 05:24:28;;;;;;;9.38;3.72;;;;;;;22.99;42.08;101775.81;146693;583;46014;-66
2021/06/05 05:26:59;;;;;;;4.80;3.22;;;;;;;23.11;42.24;101777.72;146694;590;46008;-66
2021/06/05 05:29:29;;;;;;;6.53;3.70;;;;;;;23.24;42.17;101787.69;146689;569;46011;-67
2021/06/05 05:32:00;;;;;;;12.82;3.72;;;;;;;23.30;42.16;101789.94;146692;597;47010;-67
2021/06/05 05:34:31;;;;;;;10.45;3.83;;;;;;;23.35;42.26;101786.97;146689;665;47010;-67
2021/06/05 05:37:02;;;;;;;11.27;4.00;;;;;;;23.34;42.20;101788.78;146695;650;46021;-68
2021/06/05 05:39:33;;;;;;;10.48;3.85;;;;;;;23.37;41.94;101788.59;146691;575;46016;-68
2021/06/05 05:42:04;;;;;;;8.77;3.92;;;;;;;23.43;41.95;101785.50;146695;634;46018;-67
2021/06/05 05:44:35;;;;;;;6.60;3.87;;;;;;;23.36;41.21;101786.88;146689;566;47020;-66
2021/06/05 05:47:05;;;;;;;8.98;4.32;;;;;;;23.33;41.93;101787.06;146693;602;46010;-68
2021/06/05 05:49:36;;;;;;;10.43;4.55;;;;;;;23.32;42.67;101793.41;146691;626;46016;-68
2021/06/05 05:52:07;;;;;;;8.77;4.57;;;;;;;23.30;42.82;101789.94;146696;583;45039;-68
2021/06/05 05:54:38;;;;;;;8.25;3.83;;;;;;;23.30;42.55;101789.94;146691;578;46010;-68
2021/06/05 05:57:08;;;;;;;6.47;4.00;;;;;;;23.24;42.69;101787.69;146695;574;46008;-68
2021/06/05 05:59:39;;;;;;;6.90;3.92;;;;;;;23.14;42.84;101785.59;146692;663;46014;-67
2021/06/05 06:02:10;;;;;;;7.28;4.15;;;;;;;23.09;43.06;101785.00;146692;606;47008;-67
2021/06/05 06:04:40;;;;;;;6.65;3.95;;;;;;;23.09;42.85;101776.94;146691;605;46016;-68
2021/06/05 06:07:11;;;;;;;8.23;3.70;;;;;;;23.13;43.46;101773.16;146694;578;46008;-67
2021/06/05 06:09:42;;;;;;;6.37;3.70;;;;;;;23.21;42.86;101777.16;146690;611;46010;-68
2021/06/05 06:12:13;;;;;;;7.43;3.65;;;;;;;23.21;41.78;101780.69;146696;575;46020;-68
2021/06/05 06:14:43;;;;;;;4.32;3.20;;;;;;;23.26;41.85;101775.03;146690;575;46010;-68
2021/06/05 06:17:14;;;;;;;5.72;3.50;;;;;;;23.28;41.35;101776.66;146696;643;46020;-66
2021/06/05 06:19:45;;;;;;;5.95;3.20;;;;;;;23.34;40.14;101772.72;146691;586;46010;-68
2021/06/05 06:22:15;;;;;;;5.62;2.72;;;;;;;23.51;39.86;101779.66;146693;630;46021;-68
2021/06/05 06:24:46;;;;;;;5.05;2.90;;;;;;;23.53;39.76;101785.75;146691;585;47903;-67
2021/06/05 06:27:16;;;;;;;5.90;2.90;;;;;;;23.48;38.49;101774.47;146693;570;46020;-67
2021/06/05 06:29:46;;;;;;;5.22;3.15;;;;;;;23.47;39.13;101786.19;146689;725;47011;-68
2021/06/05 06:32:17;;;;;;;3.92;2.80;;;;;;;23.46;38.81;101785.31;146695;702;46020;-68
2021/06/05 06:34:48;;;;;;;6.57;2.70;;;;;;;23.49;37.72;101781.56;146690;587;46903;-67
2021/06/05 06:37:19;;;;;;;5.30;2.70;;;;;;;23.53;38.30;101783.09;146694;569;46008;-67
2021/06/05 06:39:49;;;;;;;7.07;2.90;;;;;;;23.54;37.96;101778.56;146689;569;46016;-66
2021/06/05 06:42:20;;;;;;;4.68;2.70;;;;;;;23.52;37.84;101781.34;146692;624;46008;-65
2021/06/05 06:44:50;;;;;;;4.90;2.90;;;;;;;23.56;37.37;101780.19;146688;571;46903;-66
2021/06/05 06:47:21;;;;;;;4.72;2.90;;;;;;;23.58;38.30;101782.75;146693;582;46008;-66
2021/06/05 06:49:51;;;;;;;7.70;2.90;;;;;;;23.59;37.58;101776.44;146690;582;46903;-65
2021/06/05 06:52:25;;;;;;;4.53;2.70;;;;;;;23.61;36.75;101771.88;146691;585;46008;-65
2021/06/05 06:54:55;;;;;;;4.85;2.70;;;;;;;23.61;37.41;101771.88;146689;583;46016;-65
2021/06/05 06:57:26;;;;;;;5.22;2.80;;;;;;;23.63;37.58;101764.56;146693;581;46020;-65
2021/06/05 06:59:57;;;;;;;3.83;2.80;;;;;;;23.78;38.22;101763.56;146686;596;47010;-65
2021/06/05 07:02:28;;;;;;;6.15;2.95;;;;;;;23.82;38.01;101761.50;146691;575;46008;-65
2021/06/05 07:04:58;;;;;;;3.75;2.70;;;;;;;23.85;38.15;101758.59;146691;566;46017;-67
2021/06/05 07:07:29;;;;;;;7.43;2.75;;;;;;;23.83;38.21;101757.88;146692;760;46020;-65
2021/06/05 07:09:59;;;;;;;7.15;2.83;;;;;;;23.82;39.74;101750.78;146688;576;47010;-66
2021/06/05 07:12:30;;;;;;;6.15;3.00;;;;;;;23.92;39.00;101751.91;146691;600;46009;-66
2021/06/05 07:15:01;;;;;;;3.80;2.80;;;;;;;24.13;37.88;101752.25;146689;569;46017;-67
2021/06/05 07:17:31;;;;;;;5.70;3.00;;;;;;;24.23;38.16;101751.63;146691;584;46008;-67
2021/06/05 07:20:03;;;;;;;4.78;2.83;;;;;;;24.37;38.43;101739.91;146690;593;46014;-66
2021/06/05 07:22:33;;;;;;;4.35;2.92;;;;;;;24.33;38.81;101750.00;146690;588;46020;-65
2021/06/05 07:25:05;;;;;;;6.97;3.08;;;;;;;24.29;38.16;101741.31;146690;738;46014;-65
2021/06/05 07:27:35;;;;;;;4.60;2.97;;;;;;;24.26;38.26;101754.97;146694;581;46021;-66
2021/06/05 07:30:09;;;;;;;4.45;2.97;;;;;;;24.24;38.00;101751.50;146688;593;46017;-65
2021/06/05 07:32:39;;;;;;;4.47;3.15;;;;;;;24.28;38.98;101747.63;146693;667;46008;-66
2021/06/05 07:35:10;;;;;;;6.85;3.00;;;;;;;24.27;38.91;101742.37;146688;612;46903;-65
2021/06/05 07:37:41;;;;;;;7.93;2.97;;;;;;;24.22;39.92;101748.09;146692;607;46020;-65
2021/06/05 07:40:14;;;;;;;6.05;3.40;;;;;;;24.20;40.29;101749.16;146687;619;47008;-65
2021/06/05 07:42:44;;;;;;;5.57;3.23;;;;;;;24.26;40.11;101743.34;146691;588;46008;-64
2021/06/05 07:45:15;;;;;;;6.37;3.00;;;;;;;24.26;39.48;101737.97;146687;594;46019;-65
2021/06/05 07:47:46;;;;;;;5.90;3.37;;;;;;;24.27;40.67;101737.88;146692;614;46020;-65
2021/06/05 07:50:21;;;;;;;7.03;2.95;;;;;;;24.34;39.52;101740.97;146688;553;46010;-64
2021/06/05 07:52:52;;;;;;;5.45;3.40;;;;;;;24.45;39.68;101745.59;146690;592;47008;-65
2021/06/05 07:55:22;;;;;;;6.32;3.37;;;;;;;24.59;40.15;101742.81;146688;584;46018;-64
2021/06/05 07:57:53;;;;;;;8.35;3.47;;;;;;;24.77;39.38;101745.19;146694;599;46021;-65
2021/06/05 08:00:29;;;;;;;4.43;3.22;;;;;;;24.88;37.60;101739.88;146691;611;46016;-65
2021/06/05 08:02:59;;;;;;;4.35;3.12;;;;;;;24.96;38.25;101737.50;146693;583;46008;-65
2021/06/05 08:05:30;;;;;;;5.75;3.00;;;;;;;25.03;35.56;101732.53;146687;589;46011;-65
2021/06/05 08:08:01;;;;;;;4.53;3.20;;;;;;;25.11;35.72;101727.44;146689;572;46020;-65
2021/06/05 08:10:32;;;;;;;4.62;3.35;;;;;;;25.21;35.98;101734.84;146689;575;46010;-64
2021/06/05 08:13:02;;;;;;;6.72;3.20;;;;;;;25.35;35.69;101745.44;146693;587;46010;-65
2021/06/05 08:15:39;;;;;;;4.55;2.90;;;;;;;25.49;35.55;101739.88;146689;575;46010;-65
2021/06/05 08:18:11;;;;;;;6.80;3.10;;;;;;;25.77;34.47;101740.47;146691;581;47008;-65
2021/06/05 08:20:56;;;;;;;4.87;2.90;;;;;;;26.03;34.10;101737.63;146689;580;47010;-65
2021/06/05 08:23:29;;;;;;;4.85;2.97;;;;;;;26.16;32.35;101738.41;146691;576;47008;-64
2021/06/05 08:26:01;;;;;;;;;;;;;;;26.15;32.44;101738.53;146696;961;46016;-64
2021/06/05 08:28:32;;;;;;;6.75;2.85;;;;;;;26.02;30.18;101734.06;146701;574;46010;-65
2021/06/05 08:31:07;;;;;;;4.62;2.75;;;;;;;25.92;31.49;101733.06;146690;626;46014;-65
2021/06/05 08:33:38;;;;;;;4.40;2.75;;;;;;;25.90;31.97;101742.22;146693;602;46020;-65
2021/06/05 08:36:11;;;;;;;3.47;2.78;;;;;;;25.87;31.49;101737.06;146689;570;46905;-65
2021/06/05 08:38:42;;;;;;;5.65;2.70;;;;;;;25.76;32.52;101736.06;146698;620;45047;-64
2021/06/05 08:41:54;;;;;;;5.35;2.95;;;;;;;25.63;31.61;101735.28;146691;635;46015;-65
2021/06/05 08:44:40;;;;;;;5.18;3.30;;;;;;;25.72;31.62;101733.72;146693;645;46010;-65
2021/06/05 08:47:27;;;;;;;5.87;2.97;;;;;;;25.85;31.08;101734.50;146690;641;46023;-66
2021/06/05 08:49:58;;;;;;;6.28;3.10;;;;;;;25.71;32.96;101724.78;146693;573;46021;-64
2021/06/05 08:53:08;;;;;;;5.95;2.65;;;;;;;25.57;32.39;101720.47;146689;613;46016;-65
2021/06/05 08:55:58;;;;;;;5.00;2.78;;;;;;;25.68;33.08;101722.34;146692;578;46010;-65
2021/06/05 08:58:52;;;;;;;4.97;2.95;;;;;;;25.96;32.50;101733.69;146694;595;47021;-65
2021/06/05 09:01:42;;;;;;;7.55;3.35;;;;;;;26.07;31.72;101724.81;146691;579;46010;-65
2021/06/05 09:04:19;;;;;;;3.75;2.72;;;;;;;26.28;31.90;101722.25;146689;609;46016;-64
2021/06/05 09:07:00;;;;;;;6.20;2.85;;;;;;;26.30;30.94;101722.97;146693;597;46010;-65
2021/06/05 09:09:35;;;;;;;7.03;3.20;;;;;;;26.39;31.52;101719.56;146690;610;46014;-65
2021/06/05 09:12:07;;;;;;;5.03;3.00;;;;;;;26.39;30.94;101713.31;146692;571;46021;-65
2021/06/05 09:14:38;;;;;;;5.23;2.90;;;;;;;26.48;30.57;101724.22;146687;564;47012;-65
2021/06/05 09:17:21;;;;;;;3.50;2.80;;;;;;;26.65;30.22;101716.62;146693;633;46020;-65
2021/06/05 09:20:48;;;;;;;4.35;3.00;;;;;;;26.67;29.63;101706.59;146690;635;46014;-65
2021/06/05 09:23:39;;;;;;;6.95;3.10;;;;;;;26.99;29.89;101701.28;146692;659;46020;-65
2021/06/05 09:26:26;;;;;;;6.03;3.42;;;;;;;26.93;29.08;101695.53;146687;635;47028;-64
2021/06/05 09:29:29;;;;;;;5.87;3.10;;;;;;;26.78;29.76;101686.91;146690;592;45026;-65
2021/06/05 09:32:13;;;;;;;4.37;2.72;;;;;;;26.86;29.70;101692.50;146694;617;46014;-65
2021/06/05 09:34:49;;;;;;;4.90;3.10;;;;;;;26.91;28.66;101694.81;146693;611;46021;-66
2021/06/05 09:38:16;;;;;;;5.93;3.10;;;;;;;26.75;29.26;101681.75;146689;564;46025;-66
2021/06/05 09:41:23;;;;;;;7.07;3.00;;;;;;;26.77;29.21;101685.19;146690;633;47010;-66
2021/06/05 09:44:11;;;;;;;4.93;2.90;;;;;;;26.99;29.68;101682.41;146686;573;47021;-66
2021/06/05 09:47:22;;;;;;;5.70;3.05;;;;;;;27.08;29.42;101677.25;146693;594;46010;-66
2021/06/05 09:50:16;;;;;;;4.62;3.20;;;;;;;27.28;29.67;101672.88;146690;592;46013;-65
2021/06/05 09:52:46;;;;;;;4.80;3.10;;;;;;;27.34;29.52;101675.06;146693;611;46020;-66
2021/06/05 09:55:33;;;;;;;5.20;2.92;;;;;;;27.30;30.06;101668.25;146685;614;47018;-65
2021/06/05 09:58:10;;;;;;;7.80;3.03;;;;;;;27.37;28.72;101669.44;146694;623;45023;-66
2021/06/05 10:00:42;;;;;;;3.78;2.80;;;;;;;27.48;29.10;101661.28;146686;663;47012;-66
2021/06/05 10:03:26;;;;;;;3.78;2.85;;;;;;;27.59;28.39;101652.28;146693;783;45906;-66
2021/06/05 10:05:56;;;;;;;;;;;;;;;27.63;28.43;101663.69;146696;981;46013;-66
2021/06/05 10:08:43;;;;;;;6.43;3.08;;;;;;;27.47;28.73;101651.47;146701;669;46020;-66
2021/06/05 10:11:40;;;;;;;4.35;2.90;;;;;;;27.59;29.08;101644.19;146689;688;46016;-67
2021/06/05 10:14:20;;;;;;;5.20;3.03;;;;;;;27.47;29.50;101645.25;146693;907;46008;-66
2021/06/05 10:17:08;;;;;;;6.90;3.08;;;;;;;27.56;29.64;101630.97;146689;608;46010;-66
2021/06/05 10:20:37;;;;;;;4.05;2.90;;;;;;;27.33;31.04;101638.31;146693;624;46021;-67
2021/06/05 10:23:09;;;;;;;6.35;2.80;;;;;;;27.49;30.37;101644.13;146689;577;46010;-65
2021/06/05 10:25:45;;;;;;;4.03;2.95;;;;;;;27.54;29.16;101635.62;146690;672;46020;-65
2021/06/05 10:28:36;;;;;;;5.12;2.75;;;;;;;27.47;28.41;101629.91;146687;792;47010;-66
2021/06/05 10:31:17;;;;;;;5.57;3.05;;;;;;;27.59;28.95;101613.69;146700;573;46010;-65
2021/06/05 10:34:03;;;;;;;7.32;3.10;;;;;;;27.75;28.92;101610.50;146691;564;46011;-67
2021/06/05 10:36:47;;;;;;;5.30;3.05;;;;;;;27.71;30.16;101612.63;146693;585;46020;-67
2021/06/05 10:39:29;;;;;;;5.22;3.25;;;;;;;27.88;29.76;101608.44;146689;617;47902;-66
2021/06/05 10:42:24;;;;;;;5.85;3.05;;;;;;;27.85;30.08;101604.16;146692;621;47008;-67
2021/06/05 10:44:55;;;;;;;5.57;3.20;;;;;;;27.82;30.59;101604.44;146688;866;47018;-67
2021/06/05 10:47:55;;;;;;;4.40;2.95;;;;;;;27.77;30.55;101593.19;146691;649;46020;-66
2021/06/05 10:50:34;;;;;;;6.87;2.95;;;;;;;27.63;31.83;101597.09;146687;734;47019;-66
2021/06/05 10:53:27;;;;;;;6.32;3.00;;;;;;;27.70;31.94;101606.34;146692;564;46020;-66
2021/06/05 10:56:38;;;;;;;5.22;3.00;;;;;;;27.74;32.46;101596.16;146688;863;47900;-67
2021/06/05 10:59:48;;;;;;;5.72;3.37;;;;;;;27.51;33.00;101582.81;146691;602;46020;-67
2021/06/05 11:02:47;;;;;;;8.88;3.03;;;;;;;27.59;32.71;101581.31;146689;632;46018;-66
2021/06/05 11:05:42;;;;;;;6.53;3.80;;;;;;;27.52;33.96;101587.22;146691;564;46021;-66
2021/06/05 11:08:39;;;;;;;6.22;3.78;;;;;;;27.46;34.61;101574.31;146687;592;47018;-67
2021/06/05 11:11:41;;;;;;;4.10;3.30;;;;;;;27.49;34.49;101570.47;146693;614;46008;-69
2021/06/05 11:14:47;;;;;;;6.03;3.10;;;;;;;27.38;32.54;101571.41;146690;584;46010;-67
2021/06/05 11:17:39;;;;;;;5.78;2.90;;;;;;;27.35;32.60;101564.41;146694;687;46008;-67
2021/06/05 11:20:33;;;;;;;6.47;3.00;;;;;;;27.21;30.94;101547.72;146686;572;47018;-66
2021/06/05 11:23:12;;;;;;;5.87;2.75;;;;;;;27.12;32.63;101557.41;146688;595;47008;-66
2021/06/05 11:25:48;;;;;;;5.55;2.90;;;;;;;27.12;32.49;101552.91;146689;616;46017;-66
2021/06/05 11:28:44;;;;;;;5.47;2.67;;;;;;;26.98;33.77;101543.31;146690;566;46021;-66
2021/06/05 11:32:38;;;;;;;7.57;2.85;;;;;;;27.02;33.93;101538.50;146689;719;46010;-66
2021/06/05 11:35:49;;;;;;;7.00;3.30;;;;;;;27.07;37.11;101535.41;146693;669;46008;-65
2021/06/05 11:38:50;;;;;;;4.80;3.35;;;;;;;27.14;36.75;101533.91;146692;580;46016;-65
2021/06/05 11:42:25;;;;;;;5.18;3.40;;;;;;;27.22;35.72;101522.47;146691;757;46021;-66
2021/06/05 11:45:35;;;;;;;5.20;3.12;;;;;;;27.16;35.76;101540.88;146689;607;46032;-65
2021/06/05 11:49:00;;;;;;;5.05;3.28;;;;;;;27.04;35.88;101531.16;146693;755;46021;-65
2021/06/05 11:51:38;;;;;;;5.75;3.30;;;;;;;27.12;36.51;101530.47;146690;591;46014;-65
2021/06/05 11:54:27;;;;;;;4.47;3.25;;;;;;;26.99;37.58;101530.69;146693;678;46020;-65
2021/06/05 11:57:10;;;;;;;8.00;3.42;;;;;;;27.08;36.84;101526.31;146690;832;46017;-64
2021/06/05 11:59:45;;;;;;;5.12;3.50;;;;;;;27.00;38.21;101524.31;146698;611;46020;-64
2021/06/05 12:02:42;;;;;;;5.32;3.08;;;;;;;27.00;37.06;101518.91;146688;605;46016;-65
2021/06/05 12:05:38;;;;;;;6.50;3.10;;;;;;;26.94;36.84;101517.59;146697;651;46008;-68
2021/06/05 12:08:29;;;;;;;9.90;3.30;;;;;;;26.93;37.21;101517.72;146689;569;46016;-64
2021/06/05 12:11:00;;;;;;;5.25;3.20;;;;;;;27.00;37.60;101521.63;146692;612;46020;-67
2021/06/05 12:13:36;;;;;;;10.60;3.72;;;;;;;27.29;37.41;101527.19;146692;715;46010;-66
2021/06/05 12:16:23;;;;;;;7.62;2.92;;;;;;;27.40;36.68;101523.59;146692;565;46020;-66